createdAt,value
2022-12-06T00:01:28.986Z,9.48
2022-12-06T00:03:58.677Z,9.50
2022-12-06T00:06:28.946Z,8.75
2022-12-06T00:08:57.453Z,9.38
2022-12-06T00:11:27.365Z,9.50
2022-12-06T00:13:56.160Z,9.77
2022-12-06T00:16:24.769Z,9.90
2022-12-06T00:18:53.990Z,8.93
2022-12-06T00:21:24.579Z,8.82
2022-12-06T00:23:54.668Z,9.57
2022-12-06T00:26:23.192Z,9.73
2022-12-06T00:28:53.982Z,8.68
2022-12-06T00:31:24.087Z,7.90
2022-12-06T00:33:53.674Z,7.57
2022-12-06T00:36:23.235Z,8.38
2022-12-06T00:38:51.442Z,7.53
2022-12-06T00:41:21.267Z,8.10
2022-12-06T00:43:49.738Z,7.93
2022-12-06T00:46:19.670Z,8.60
2022-12-06T00:48:48.895Z,7.03
2022-12-06T00:51:19.842Z,7.55
2022-12-06T00:53:48.629Z,7.38
2022-12-06T00:56:16.410Z,7.93
2022-12-06T00:58:44.441Z,7.40
2022-12-06T01:01:14.042Z,8.85
2022-12-06T01:03:42.561Z,8.20
2022-12-06T01:06:12.632Z,7.20
2022-12-06T01:08:42.193Z,7.65
2022-12-06T01:11:10.644Z,6.88
2022-12-06T01:13:38.541Z,5.78
2022-12-06T01:16:07.555Z,6.22
2022-12-06T01:18:35.489Z,6.35
2022-12-06T01:21:06.624Z,6.75
2022-12-06T01:23:34.378Z,6.65
2022-12-06T01:26:03.689Z,6.93
2022-12-06T01:28:31.522Z,7.13
2022-12-06T01:30:59.485Z,7.95
2022-12-06T01:33:27.582Z,6.78
2022-12-06T01:35:55.223Z,6.07
2022-12-06T01:38:22.913Z,5.85
2022-12-06T01:40:50.837Z,5.35
2022-12-06T01:43:37.882Z,6.00
2022-12-06T01:46:19.206Z,6.13
2022-12-06T01:48:48.537Z,5.53
2022-12-06T01:51:17.119Z,5.80
2022-12-06T01:53:48.340Z,6.72
2022-12-06T01:56:16.417Z,6.72
2022-12-06T01:58:48.055Z,4.70
2022-12-06T02:01:15.905Z,4.80
2022-12-06T02:03:45.388Z,7.05
2022-12-06T02:06:13.577Z,6.60
2022-12-06T02:08:41.309Z,6.30
2022-12-06T02:11:09.792Z,6.03
2022-12-06T02:13:38.444Z,5.30
2022-12-06T02:16:20.378Z,4.75
2022-12-06T02:18:52.562Z,4.00
2022-12-06T02:21:29.758Z,5.38
2022-12-06T02:24:23.427Z,5.25
2022-12-06T02:26:56.430Z,4.93
2022-12-06T02:29:51.801Z,5.50
2022-12-06T02:32:25.374Z,5.97
2022-12-06T02:35:01.268Z,5.28
2022-12-06T02:37:35.488Z,5.35
2022-12-06T02:40:07.956Z,5.38
2022-12-06T02:42:39.979Z,5.50
2022-12-06T02:45:12.203Z,5.10
2022-12-06T02:47:43.607Z,5.25
2022-12-06T02:50:15.468Z,5.97
2022-12-06T02:52:45.892Z,5.00
2022-12-06T02:55:14.629Z,5.80
2022-12-06T02:57:44.535Z,5.93
2022-12-06T03:00:35.052Z,5.63
2022-12-06T03:03:16.832Z,5.80
2022-12-06T03:06:12.321Z,5.57
2022-12-06T03:08:45.323Z,5.50
2022-12-06T03:11:13.657Z,5.32
2022-12-06T03:13:50.391Z,5.20
2022-12-06T03:16:25.710Z,5.05
2022-12-06T03:18:59.521Z,5.20
2022-12-06T03:21:33.677Z,5.43
2022-12-06T03:24:01.722Z,5.07
2022-12-06T03:26:34.365Z,5.85
2022-12-06T03:29:05.056Z,5.75
2022-12-06T03:31:34.973Z,5.60
2022-12-06T03:34:11.306Z,5.45
2022-12-06T03:36:40.623Z,5.82
2022-12-06T03:39:09.995Z,5.63
2022-12-06T03:41:42.164Z,5.32
2022-12-06T03:44:10.160Z,5.70
2022-12-06T03:46:40.943Z,5.38
2022-12-06T03:49:16.818Z,5.80
2022-12-06T04:02:54.645Z,4.80
2022-12-06T04:20:46.393Z,4.75
2022-12-06T04:23:14.131Z,5.15
2022-12-06T04:25:41.786Z,5.20
2022-12-06T04:28:27.199Z,5.55
2022-12-06T04:31:18.548Z,5.22
2022-12-06T04:34:07.129Z,5.88
2022-12-06T04:36:52.403Z,5.60
2022-12-06T04:39:20.936Z,5.80
2022-12-06T04:42:06.390Z,6.00
2022-12-06T04:44:34.007Z,6.10
2022-12-06T04:47:03.180Z,6.82
2022-12-06T04:49:30.853Z,7.78
2022-12-06T04:51:58.519Z,6.90
2022-12-06T04:54:29.873Z,6.38
2022-12-06T04:56:57.751Z,5.57
2022-12-06T04:59:26.052Z,6.60
2022-12-06T05:01:54.002Z,6.40
2022-12-06T05:04:23.825Z,5.85
2022-12-06T05:06:52.465Z,6.43
2022-12-06T05:09:20.193Z,7.07
2022-12-06T05:11:47.816Z,6.13
2022-12-06T05:14:15.581Z,6.72
2022-12-06T05:16:43.426Z,5.72
2022-12-06T05:19:11.240Z,6.20
2022-12-06T05:21:40.622Z,5.40
2022-12-06T05:24:09.041Z,6.20
2022-12-06T05:26:36.695Z,6.00
2022-12-06T05:29:04.896Z,6.15
2022-12-06T05:31:32.639Z,5.70
2022-12-06T05:34:00.395Z,6.55
2022-12-06T05:36:28.705Z,6.68
2022-12-06T05:38:59.082Z,5.70
2022-12-06T05:41:26.797Z,5.20
2022-12-06T05:43:54.487Z,5.95
2022-12-06T05:46:22.198Z,6.07
2022-12-06T05:48:49.905Z,6.32
2022-12-06T05:51:18.486Z,4.97
2022-12-06T05:53:46.152Z,5.40
2022-12-06T05:56:15.284Z,6.18
2022-12-06T05:58:42.924Z,5.60
2022-12-06T06:01:11.038Z,5.57
2022-12-06T06:03:45.521Z,5.28
2022-12-06T06:06:17.960Z,5.00
2022-12-06T06:08:45.644Z,5.03
2022-12-06T06:11:13.367Z,4.82
2022-12-06T06:13:42.685Z,4.57
2022-12-06T06:16:10.453Z,4.57
2022-12-06T06:18:38.181Z,4.82
2022-12-06T06:21:06.343Z,5.03
2022-12-06T06:23:34.246Z,5.10
2022-12-06T06:26:01.973Z,5.68
2022-12-06T06:28:29.767Z,5.35
2022-12-06T06:30:58.824Z,5.60
2022-12-06T06:33:26.544Z,4.68
2022-12-06T06:35:54.308Z,4.68
2022-12-06T06:38:22.028Z,5.40
2022-12-06T06:40:49.711Z,5.13
2022-12-06T06:43:20.426Z,5.50
2022-12-06T06:45:52.995Z,5.13
2022-12-06T06:48:23.199Z,5.05
2022-12-06T06:50:56.710Z,5.00
2022-12-06T06:53:26.318Z,5.40
2022-12-06T06:55:55.079Z,4.72
2022-12-06T06:58:22.814Z,5.22
2022-12-06T07:00:55.185Z,5.00
2022-12-06T07:03:25.269Z,5.10
2022-12-06T07:05:53.915Z,5.22
2022-12-06T07:08:22.009Z,5.30
2022-12-06T07:10:49.770Z,5.78
2022-12-06T07:13:17.537Z,4.32
2022-12-06T07:15:45.405Z,4.97
2022-12-06T07:18:13.147Z,4.82
2022-12-06T07:20:42.150Z,4.38
2022-12-06T07:23:09.877Z,5.35
2022-12-06T07:25:37.518Z,4.85
2022-12-06T07:28:06.096Z,5.15
2022-12-06T07:30:34.301Z,5.53
2022-12-06T07:33:02.939Z,4.65
2022-12-06T07:35:55.717Z,4.63
2022-12-06T07:38:20.014Z,5.38
2022-12-06T07:41:03.839Z,5.30
2022-12-06T07:43:49.346Z,6.05
2022-12-06T07:46:17.092Z,5.35
2022-12-06T07:48:45.103Z,6.22
2022-12-06T07:51:12.807Z,6.03
2022-12-06T07:53:42.146Z,5.43
2022-12-06T07:56:10.409Z,5.25
2022-12-06T07:58:38.149Z,5.43
2022-12-06T08:01:06.104Z,5.72
2022-12-06T08:03:33.896Z,5.60
2022-12-06T08:06:04.214Z,5.60
2022-12-06T08:08:32.866Z,5.10
2022-12-06T08:11:05.361Z,8.05
2022-12-06T08:13:34.146Z,7.70
2022-12-06T08:16:06.147Z,6.30
2022-12-06T08:18:38.150Z,7.03
2022-12-06T08:21:06.091Z,5.78
2022-12-06T08:23:36.178Z,5.32
2022-12-06T08:26:08.631Z,5.50
2022-12-06T08:28:38.085Z,5.43
2022-12-06T08:31:07.367Z,5.70
2022-12-06T08:33:38.378Z,5.90
2022-12-06T08:36:08.916Z,6.28
2022-12-06T08:38:38.992Z,5.85
2022-12-06T08:41:30.290Z,4.95
2022-12-06T08:43:59.285Z,5.28
2022-12-06T08:46:27.357Z,5.30
2022-12-06T08:48:55.401Z,5.07
2022-12-06T08:51:23.212Z,5.47
2022-12-06T08:53:55.801Z,5.40
2022-12-06T08:56:25.430Z,6.30
2022-12-06T08:58:54.223Z,5.10
2022-12-06T09:01:26.690Z,6.00
2022-12-06T09:03:54.518Z,6.20
2022-12-06T09:06:23.201Z,5.65
2022-12-06T09:08:51.299Z,6.90
2022-12-06T09:11:20.386Z,6.80
2022-12-06T09:13:49.469Z,6.53
2022-12-06T09:16:21.283Z,6.93
2022-12-06T09:18:49.717Z,6.82
2022-12-06T09:21:20.337Z,6.93
2022-12-06T09:23:48.223Z,8.23
2022-12-06T09:26:17.253Z,6.97
2022-12-06T09:28:50.853Z,7.10
2022-12-06T09:31:19.297Z,7.22
2022-12-06T09:33:47.377Z,7.00
2022-12-06T09:36:19.601Z,7.88
2022-12-06T09:38:51.974Z,7.25
2022-12-06T09:41:39.386Z,7.03
2022-12-06T09:44:23.247Z,7.45
2022-12-06T09:47:07.628Z,6.78
2022-12-06T09:49:47.253Z,7.50
2022-12-06T09:52:44.875Z,7.10
2022-12-06T09:55:25.732Z,8.85
2022-12-06T09:58:01.525Z,7.90
2022-12-06T10:00:35.961Z,8.73
2022-12-06T10:03:33.090Z,8.25
2022-12-06T10:06:04.091Z,8.00
2022-12-06T10:08:50.860Z,8.18
2022-12-06T10:11:32.572Z,9.60
2022-12-06T10:14:13.802Z,11.13
2022-12-06T10:16:53.550Z,9.55
2022-12-06T10:19:35.493Z,10.13
2022-12-06T10:22:14.051Z,11.02
2022-12-06T10:24:51.396Z,10.93
2022-12-06T10:27:25.030Z,10.10
2022-12-06T10:29:57.917Z,11.45
2022-12-06T10:32:42.264Z,11.40
2022-12-06T10:35:19.260Z,10.80
2022-12-06T10:37:59.709Z,11.00
2022-12-06T10:40:31.824Z,10.63
2022-12-06T10:43:05.485Z,10.70
2022-12-06T10:45:55.737Z,10.00
2022-12-06T10:48:34.025Z,9.07
2022-12-06T10:51:07.186Z,9.80
2022-12-06T10:53:42.070Z,8.43
2022-12-06T10:56:18.088Z,9.68
2022-12-06T10:58:51.738Z,9.48
2022-12-06T11:01:23.698Z,8.80
2022-12-06T11:04:00.769Z,10.13
2022-12-06T11:06:33.193Z,9.02
2022-12-06T11:09:06.800Z,8.60
2022-12-06T11:11:36.822Z,8.75
2022-12-06T11:14:08.131Z,8.88
2022-12-06T11:16:40.965Z,8.98
2022-12-06T11:19:31.203Z,9.90
2022-12-06T11:22:05.231Z,10.25
2022-12-06T11:24:43.227Z,10.60
2022-12-06T11:27:22.855Z,9.93
2022-12-06T11:29:53.255Z,9.45
2022-12-06T11:32:21.099Z,9.25
2022-12-06T11:34:52.734Z,9.35
2022-12-06T11:37:22.443Z,9.82
2022-12-06T11:39:52.742Z,9.52
2022-12-06T11:42:25.583Z,9.80
2022-12-06T11:44:56.143Z,8.85
2022-12-06T11:47:24.412Z,9.25
2022-12-06T11:49:56.343Z,9.38
2022-12-06T11:52:30.250Z,7.72
2022-12-06T11:55:01.029Z,7.95
2022-12-06T11:57:39.417Z,7.90
2022-12-06T12:00:18.542Z,8.25
2022-12-06T12:02:48.689Z,8.70
2022-12-06T12:05:22.889Z,9.60
2022-12-06T12:07:55.120Z,6.97
2022-12-06T12:10:33.909Z,7.78
2022-12-06T12:13:38.053Z,7.00
2022-12-06T12:16:12.481Z,7.25
2022-12-06T12:18:44.420Z,7.13
2022-12-06T12:21:13.927Z,6.43
2022-12-06T12:23:45.065Z,7.35
2022-12-06T12:26:14.728Z,7.50
2022-12-06T12:28:43.761Z,7.05
2022-12-06T12:31:20.830Z,7.05
2022-12-06T12:33:49.693Z,6.60
2022-12-06T12:36:26.202Z,5.35
2022-12-06T12:38:57.348Z,4.90
2022-12-06T12:41:30.196Z,4.82
2022-12-06T12:44:28.841Z,5.07
2022-12-06T12:46:55.278Z,5.20
2022-12-06T12:49:26.710Z,5.72
2022-12-06T12:51:56.349Z,4.53
2022-12-06T12:54:28.766Z,4.70
2022-12-06T12:56:58.021Z,5.57
2022-12-06T12:59:30.564Z,4.70
2022-12-06T13:02:05.221Z,4.07
2022-12-06T13:04:42.361Z,3.95
2022-12-06T13:07:21.014Z,4.05
2022-12-06T13:09:55.912Z,4.65
2022-12-06T13:12:29.934Z,3.38
2022-12-06T13:15:02.307Z,3.85
2022-12-06T13:17:33.610Z,5.25
2022-12-06T13:20:02.873Z,4.30
2022-12-06T13:22:37.770Z,3.55
2022-12-06T13:25:08.431Z,4.10
2022-12-06T13:27:41.288Z,4.00
2022-12-06T13:30:14.293Z,4.18
2022-12-06T13:32:45.245Z,3.50
2022-12-06T13:35:26.264Z,3.83
2022-12-06T13:37:57.787Z,4.57
2022-12-06T13:40:55.666Z,4.95
2022-12-06T13:43:51.142Z,4.20
2022-12-06T13:46:30.369Z,4.65
2022-12-06T13:48:59.709Z,4.50
2022-12-06T13:51:47.821Z,4.43
2022-12-06T13:54:32.867Z,4.55
2022-12-06T13:57:17.890Z,4.65
2022-12-06T13:59:45.531Z,4.65
2022-12-06T14:02:46.840Z,6.75
2022-12-06T14:08:18.797Z,5.68
2022-12-06T14:10:48.093Z,5.57
2022-12-06T14:13:18.020Z,5.50
2022-12-06T14:15:51.195Z,5.80
2022-12-06T14:18:21.114Z,4.70
2022-12-06T14:20:50.940Z,5.57
2022-12-06T14:23:27.764Z,5.38
2022-12-06T14:26:20.339Z,4.80
2022-12-06T14:28:50.041Z,5.57
2022-12-06T14:31:22.756Z,5.28
2022-12-06T14:33:51.186Z,5.03
2022-12-06T14:36:22.884Z,4.80
2022-12-06T14:38:58.267Z,5.00
2022-12-06T14:41:50.331Z,4.43
2022-12-06T14:44:19.803Z,4.93
2022-12-06T14:46:49.694Z,4.80
2022-12-06T14:49:38.062Z,5.30
2022-12-06T14:52:18.934Z,5.38
2022-12-06T14:54:47.315Z,4.80
2022-12-06T14:57:27.569Z,4.60
2022-12-06T15:00:25.401Z,5.45
2022-12-06T15:03:21.442Z,6.57
2022-12-06T15:05:52.130Z,4.63
2022-12-06T15:08:34.271Z,5.03
2022-12-06T15:11:03.941Z,5.45
2022-12-06T15:13:33.333Z,5.47
2022-12-06T15:16:05.396Z,5.50
2022-12-06T15:18:36.085Z,5.03
2022-12-06T15:21:03.911Z,4.70
2022-12-06T15:23:38.138Z,5.30
2022-12-06T15:26:07.881Z,5.45
2022-12-06T15:28:37.008Z,5.57
2022-12-06T15:31:05.730Z,5.18
2022-12-06T15:33:33.460Z,5.65
2022-12-06T15:36:01.194Z,5.25
2022-12-06T15:38:28.891Z,6.32
2022-12-06T15:40:57.227Z,6.13
2022-12-06T15:43:31.611Z,5.47
2022-12-06T15:46:02.882Z,5.47
2022-12-06T15:48:34.618Z,5.30
2022-12-06T15:51:02.455Z,5.60
2022-12-06T15:53:30.482Z,5.75
2022-12-06T15:55:58.279Z,6.28
2022-12-06T15:58:26.328Z,5.75
2022-12-06T16:00:55.107Z,5.20
2022-12-06T16:03:24.309Z,5.95
2022-12-06T16:05:52.147Z,6.30
2022-12-06T16:08:19.947Z,5.03
2022-12-06T16:11:11.305Z,5.70
2022-12-06T16:13:35.586Z,5.80
2022-12-06T16:16:03.500Z,5.22
2022-12-06T16:18:32.640Z,5.68
2022-12-06T16:21:00.390Z,5.60
2022-12-06T16:26:37.775Z,6.07
2022-12-06T16:29:07.976Z,6.40
2022-12-06T16:31:38.688Z,6.00
2022-12-06T16:34:08.525Z,6.50
2022-12-06T16:36:52.786Z,5.95
2022-12-06T16:39:20.487Z,5.97
2022-12-06T16:41:48.466Z,6.28
2022-12-06T16:44:16.140Z,5.90
2022-12-06T16:46:44.560Z,5.60
2022-12-06T16:49:45.133Z,5.55
2022-12-06T16:52:07.630Z,6.07
2022-12-06T16:54:35.882Z,6.05
2022-12-06T16:57:03.623Z,6.18
2022-12-06T16:59:31.346Z,6.15
2022-12-06T17:01:59.399Z,6.40
2022-12-06T17:04:30.752Z,6.25
2022-12-06T17:06:58.428Z,5.65
2022-12-06T17:09:26.132Z,6.32
2022-12-06T17:12:06.976Z,6.50
2022-12-06T17:14:36.058Z,5.72
2022-12-06T17:17:04.267Z,5.70
2022-12-06T17:19:34.424Z,5.30
2022-12-06T17:22:03.337Z,6.45
2022-12-06T17:24:31.195Z,6.25
2022-12-06T17:26:59.077Z,6.00
2022-12-06T17:29:27.430Z,6.18
2022-12-06T17:31:55.645Z,6.45
2022-12-06T17:34:25.664Z,6.72
2022-12-06T17:36:57.646Z,6.30
2022-12-06T17:39:25.751Z,6.53
2022-12-06T17:42:11.499Z,6.03
2022-12-06T17:44:39.953Z,6.78
2022-12-06T17:47:07.855Z,6.07
2022-12-06T17:49:36.191Z,6.20
2022-12-06T17:52:05.954Z,5.95
2022-12-06T17:54:33.716Z,6.85
2022-12-06T17:57:01.461Z,5.60
2022-12-06T17:59:31.856Z,6.43
2022-12-06T18:02:17.496Z,6.22
2022-12-06T18:04:47.284Z,6.75
2022-12-06T18:07:18.381Z,5.85
2022-12-06T18:09:46.996Z,6.13
2022-12-06T18:12:16.282Z,6.50
2022-12-06T18:14:44.517Z,6.63
2022-12-06T18:17:12.652Z,6.40
2022-12-06T18:19:41.396Z,6.65
2022-12-06T18:22:09.237Z,6.43
2022-12-06T18:24:38.671Z,6.03
2022-12-06T18:27:07.231Z,6.53
2022-12-06T18:29:35.607Z,6.13
2022-12-06T18:32:06.268Z,5.55
2022-12-06T18:34:34.002Z,5.95
2022-12-06T18:37:01.682Z,6.38
2022-12-06T18:39:29.453Z,6.65
2022-12-06T18:41:58.620Z,6.75
2022-12-06T18:44:27.327Z,5.68
2022-12-06T18:46:55.093Z,6.88
2022-12-06T18:49:24.389Z,6.13
2022-12-06T18:51:52.078Z,6.53
2022-12-06T18:54:21.128Z,7.35
2022-12-06T18:56:50.882Z,7.30
2022-12-06T18:59:27.457Z,6.78
2022-12-06T19:01:55.620Z,6.63
2022-12-06T19:04:34.659Z,6.65
2022-12-06T19:07:04.117Z,6.55
2022-12-06T19:09:31.993Z,6.55
2022-12-06T19:12:00.298Z,6.40
2022-12-06T19:14:29.997Z,6.75
2022-12-06T19:16:58.051Z,7.38
2022-12-06T19:19:28.088Z,7.18
2022-12-06T19:21:56.924Z,7.50
2022-12-06T19:24:27.041Z,8.27
2022-12-06T19:26:55.854Z,7.75
2022-12-06T19:29:23.664Z,8.05
2022-12-06T19:31:53.030Z,7.88
2022-12-06T19:34:22.892Z,8.93
2022-12-06T19:36:51.696Z,8.07
2022-12-06T19:39:20.408Z,9.95
2022-12-06T19:42:06.198Z,9.02
2022-12-06T19:44:34.454Z,8.43
2022-12-06T19:47:03.555Z,7.35
2022-12-06T19:49:31.456Z,7.80
2022-12-06T19:51:59.491Z,7.13
2022-12-06T19:54:31.240Z,7.38
2022-12-06T19:57:00.971Z,7.53
2022-12-06T19:59:31.414Z,8.18
2022-12-06T20:01:59.905Z,7.40
2022-12-06T20:04:31.224Z,7.82
2022-12-06T20:06:59.381Z,7.50
2022-12-06T20:09:29.822Z,7.40
2022-12-06T20:12:05.380Z,7.50
2022-12-06T20:14:39.480Z,6.68
2022-12-06T20:17:09.693Z,7.10
2022-12-06T20:19:39.062Z,7.60
2022-12-06T20:22:06.985Z,7.22
2022-12-06T20:24:34.654Z,7.70
2022-12-06T20:27:02.319Z,6.70
2022-12-06T20:29:32.543Z,6.68
2022-12-06T20:32:02.026Z,7.28
2022-12-06T20:34:34.044Z,6.28
2022-12-06T20:37:05.896Z,6.82
2022-12-06T20:39:35.654Z,7.28
2022-12-06T20:42:05.484Z,6.35
2022-12-06T20:44:34.121Z,7.05
2022-12-06T20:47:01.924Z,7.30
2022-12-06T20:49:29.695Z,6.32
2022-12-06T20:52:01.072Z,6.18
2022-12-06T20:54:30.528Z,5.22
2022-12-06T20:56:58.412Z,5.80
2022-12-06T20:59:26.927Z,6.30
2022-12-06T21:01:54.934Z,6.50
2022-12-06T21:04:22.727Z,6.05
2022-12-06T21:06:50.559Z,5.60
2022-12-06T21:09:18.264Z,6.18
2022-12-06T21:11:47.390Z,5.45
2022-12-06T21:14:16.326Z,5.60
2022-12-06T21:16:44.531Z,6.35
2022-12-06T21:19:15.676Z,5.60
2022-12-06T21:21:46.601Z,5.72
2022-12-06T21:24:16.852Z,5.65
2022-12-06T21:26:44.877Z,6.13
2022-12-06T21:29:16.900Z,5.38
2022-12-06T21:31:44.885Z,6.30
2022-12-06T21:34:13.057Z,5.85
2022-12-06T21:36:40.985Z,6.45
2022-12-06T21:39:09.214Z,5.85
2022-12-06T21:41:36.933Z,5.40
2022-12-06T21:44:04.673Z,5.32
2022-12-06T21:46:33.934Z,5.88
2022-12-06T21:49:01.718Z,6.05
2022-12-06T21:51:31.136Z,5.93
2022-12-06T21:53:59.604Z,6.10
2022-12-06T21:56:29.319Z,5.65
2022-12-06T21:58:59.881Z,5.82
2022-12-06T22:01:28.475Z,6.03
2022-12-06T22:03:59.797Z,6.15
2022-12-06T22:06:28.047Z,5.95
2022-12-06T22:09:00.627Z,6.63
2022-12-06T22:11:29.400Z,6.72
2022-12-06T22:13:58.698Z,6.50
2022-12-06T22:16:26.482Z,6.85
2022-12-06T22:18:55.350Z,7.40
2022-12-06T22:21:26.300Z,7.35
2022-12-06T22:23:54.371Z,7.00
2022-12-06T22:26:24.001Z,6.80
2022-12-06T22:28:52.243Z,6.40
2022-12-06T22:31:21.783Z,5.90
2022-12-06T22:33:50.622Z,6.82
2022-12-06T22:36:19.448Z,6.93
2022-12-06T22:38:50.923Z,6.82
2022-12-06T22:41:19.574Z,7.13
2022-12-06T22:43:47.775Z,6.57
2022-12-06T22:46:16.832Z,7.45
2022-12-06T22:48:44.791Z,6.95
2022-12-06T22:51:14.745Z,6.38
2022-12-06T22:53:44.563Z,6.88
2022-12-06T22:56:14.934Z,6.57
2022-12-06T22:58:42.825Z,6.88
2022-12-06T23:01:16.535Z,7.93
2022-12-06T23:03:45.278Z,6.57
2022-12-06T23:06:14.115Z,7.22
2022-12-06T23:08:42.728Z,7.20
2022-12-06T23:11:14.185Z,6.82
2022-12-06T23:13:42.901Z,7.70
2022-12-06T23:16:14.512Z,7.30
2022-12-06T23:18:42.643Z,7.50
2022-12-06T23:21:14.436Z,6.95
2022-12-06T23:23:43.975Z,6.90
2022-12-06T23:26:15.469Z,6.95
2022-12-06T23:28:43.843Z,7.85
2022-12-06T23:31:13.935Z,7.53
2022-12-06T23:33:42.398Z,8.55
2022-12-06T23:36:14.200Z,7.80
2022-12-06T23:38:42.010Z,6.78
2022-12-06T23:41:11.818Z,8.13
2022-12-06T23:43:41.443Z,6.75
2022-12-06T23:46:11.120Z,6.57
2022-12-06T23:48:39.308Z,7.40
2022-12-06T23:51:08.940Z,6.93
2022-12-06T23:53:36.716Z,8.13
2022-12-06T23:56:08.154Z,7.50
2022-12-06T23:58:36.412Z,7.20
